createdAt,value
2022-09-14T00:00:54.751Z,48.46
2022-09-14T00:03:31.450Z,48.78
2022-09-14T00:06:03.318Z,48.88
2022-09-14T00:08:30.838Z,48.84
2022-09-14T00:10:58.276Z,49.07
2022-09-14T00:13:25.493Z,49.67
2022-09-14T00:15:52.996Z,48.96
2022-09-14T00:18:20.220Z,48.78
2022-09-14T00:20:47.408Z,48.79
2022-09-14T00:23:14.936Z,49.04
2022-09-14T00:25:42.137Z,49.13
2022-09-14T00:28:09.332Z,49.27
2022-09-14T00:30:41.263Z,49.45
2022-09-14T00:33:08.512Z,48.89
2022-09-14T00:35:36.028Z,49.13
2022-09-14T00:38:03.495Z,48.98
2022-09-14T00:40:31.140Z,48.83
2022-09-14T00:42:58.341Z,48.91
2022-09-14T00:45:26.173Z,49.57
2022-09-14T00:47:53.452Z,49.57
2022-09-14T00:50:21.079Z,49.88
2022-09-14T00:52:49.032Z,49.18
2022-09-14T00:55:18.344Z,49.00
2022-09-14T00:57:49.647Z,49.08
2022-09-14T01:00:18.432Z,49.52
2022-09-14T01:02:45.755Z,49.40
2022-09-14T01:05:13.024Z,49.84
2022-09-14T01:07:56.951Z,49.07
2022-09-14T01:10:43.195Z,49.55
2022-09-14T01:13:10.653Z,49.50
2022-09-14T01:15:37.963Z,49.26
2022-09-14T01:18:09.930Z,49.69
2022-09-14T01:20:37.331Z,49.60
2022-09-14T01:23:10.973Z,49.99
2022-09-14T01:25:41.503Z,49.19
2022-09-14T01:28:34.952Z,49.34
2022-09-14T01:31:03.300Z,49.63
2022-09-14T01:33:32.508Z,49.48
2022-09-14T01:36:00.156Z,49.38
2022-09-14T01:38:54.076Z,49.36
2022-09-14T01:41:22.612Z,49.21
2022-09-14T01:43:51.439Z,49.32
2022-09-14T01:46:19.473Z,49.25
2022-09-14T01:49:01.107Z,49.10
2022-09-14T01:51:29.843Z,49.37
2022-09-14T01:54:05.656Z,49.34
2022-09-14T01:56:35.313Z,49.36
2022-09-14T01:59:05.583Z,49.68
2022-09-14T02:01:37.807Z,50.27
2022-09-14T02:04:06.675Z,49.76
2022-09-14T02:06:40.982Z,49.90
2022-09-14T02:09:10.405Z,49.79
2022-09-14T02:11:38.087Z,50.24
2022-09-14T02:14:05.274Z,50.12
2022-09-14T02:16:32.792Z,49.81
2022-09-14T02:19:01.681Z,49.75
2022-09-14T02:21:29.900Z,50.53
2022-09-14T02:24:00.543Z,50.59
2022-09-14T02:26:28.119Z,50.47
2022-09-14T02:28:56.218Z,50.24
2022-09-14T02:31:42.658Z,50.14
2022-09-14T02:34:30.662Z,49.78
2022-09-14T02:37:08.712Z,49.85
2022-09-14T02:39:36.676Z,49.76
2022-09-14T02:42:09.031Z,50.30
2022-09-14T02:44:36.303Z,49.86
2022-09-14T02:47:03.824Z,49.58
2022-09-14T02:49:44.371Z,50.09
2022-09-14T02:52:15.135Z,50.30
2022-09-14T02:54:50.967Z,50.59
2022-09-14T02:57:18.445Z,50.96
2022-09-14T02:59:45.643Z,49.89
2022-09-14T03:02:12.907Z,50.26
2022-09-14T03:04:40.395Z,50.55
2022-09-14T03:07:08.746Z,50.13
2022-09-14T03:09:35.977Z,50.70
2022-09-14T03:12:03.625Z,50.83
2022-09-14T03:14:30.837Z,50.30
2022-09-14T03:16:58.276Z,51.04
2022-09-14T03:19:25.858Z,51.27
2022-09-14T03:21:53.071Z,50.53
2022-09-14T03:24:20.385Z,50.47
2022-09-14T03:26:47.946Z,50.76
2022-09-14T03:29:15.102Z,51.14
2022-09-14T03:31:42.396Z,50.43
2022-09-14T03:34:09.970Z,50.60
2022-09-14T03:36:37.160Z,50.43
2022-09-14T03:39:04.351Z,50.85
2022-09-14T03:41:31.801Z,50.79
2022-09-14T03:43:59.004Z,49.74
2022-09-14T03:46:26.295Z,50.01
2022-09-14T03:48:54.364Z,50.34
2022-09-14T03:51:21.716Z,50.74
2022-09-14T03:53:48.933Z,50.87
2022-09-14T03:56:17.631Z,50.57
2022-09-14T03:58:45.208Z,49.97
2022-09-14T04:01:14.557Z,49.95
2022-09-14T04:03:42.393Z,49.46
2022-09-14T04:06:10.073Z,49.71
2022-09-14T04:08:38.204Z,49.98
2022-09-14T04:11:08.685Z,49.54
2022-09-14T04:13:35.870Z,49.75
2022-09-14T04:16:03.121Z,50.53
2022-09-14T04:18:30.995Z,50.39
2022-09-14T04:20:58.894Z,51.55
2022-09-14T04:23:26.221Z,51.26
2022-09-14T04:25:54.665Z,50.81
2022-09-14T04:28:22.571Z,50.17
2022-09-14T04:30:59.060Z,49.94
2022-09-14T04:33:29.531Z,50.35
2022-09-14T04:35:58.137Z,50.79
2022-09-14T04:38:25.430Z,50.14
2022-09-14T04:40:52.911Z,50.84
2022-09-14T04:43:20.211Z,51.09
2022-09-14T04:45:47.527Z,50.87
2022-09-14T04:48:15.043Z,50.73
2022-09-14T04:50:42.245Z,50.95
2022-09-14T04:53:10.209Z,50.60
2022-09-14T04:55:37.767Z,50.43
2022-09-14T04:58:05.023Z,49.98
2022-09-14T05:00:33.543Z,50.05
2022-09-14T05:03:01.103Z,50.13
2022-09-14T05:05:28.358Z,50.83
2022-09-14T05:07:55.542Z,50.71
2022-09-14T05:10:23.138Z,50.67
2022-09-14T05:12:50.355Z,50.47
2022-09-14T05:15:17.557Z,50.57
2022-09-14T05:17:45.003Z,50.30
2022-09-14T05:20:12.201Z,49.73
2022-09-14T05:22:39.402Z,49.98
2022-09-14T05:25:07.051Z,50.27
2022-09-14T05:27:34.261Z,50.04
2022-09-14T05:30:01.588Z,50.14
2022-09-14T05:32:29.061Z,49.48
2022-09-14T05:34:56.585Z,49.61
2022-09-14T05:37:23.842Z,50.09
2022-09-14T05:39:51.368Z,50.09
2022-09-14T05:42:18.632Z,49.84
2022-09-14T05:44:45.824Z,49.25
2022-09-14T05:47:13.346Z,48.75
2022-09-14T05:49:40.626Z,48.98
2022-09-14T05:52:07.822Z,48.84
2022-09-14T05:54:35.314Z,49.25
2022-09-14T05:57:02.523Z,48.62
2022-09-14T05:59:31.683Z,48.01
2022-09-14T06:01:59.462Z,48.64
2022-09-14T06:04:27.100Z,48.26
2022-09-14T06:07:17.054Z,48.18
2022-09-14T06:09:42.688Z,48.92
2022-09-14T06:12:09.909Z,49.55
2022-09-14T06:14:37.095Z,49.16
2022-09-14T06:17:05.742Z,48.45
2022-09-14T06:19:32.941Z,48.63
2022-09-14T06:22:00.686Z,48.92
2022-09-14T06:24:28.144Z,49.68
2022-09-14T06:26:55.455Z,48.46
2022-09-14T06:29:22.738Z,48.25
2022-09-14T06:31:50.232Z,47.99
2022-09-14T06:34:17.907Z,49.30
2022-09-14T06:36:45.672Z,49.47
2022-09-14T06:39:13.204Z,49.20
2022-09-14T06:41:40.385Z,48.18
2022-09-14T06:44:13.057Z,48.09
2022-09-14T06:46:42.782Z,47.43
2022-09-14T06:49:13.936Z,47.82
2022-09-14T06:51:42.418Z,47.29
2022-09-14T06:54:10.413Z,47.20
2022-09-14T06:56:38.942Z,47.35
2022-09-14T06:59:07.499Z,48.36
2022-09-14T07:01:34.730Z,49.64
2022-09-14T07:04:02.010Z,50.78
2022-09-14T07:06:31.023Z,50.46
2022-09-14T07:08:58.267Z,51.27
2022-09-14T07:11:26.364Z,51.40
2022-09-14T07:14:00.458Z,51.71
2022-09-14T07:16:28.332Z,52.50
2022-09-14T07:18:56.496Z,52.91
2022-09-14T07:21:23.999Z,53.07
2022-09-14T07:23:51.284Z,52.58
2022-09-14T07:26:25.975Z,53.40
2022-09-14T07:28:54.484Z,53.26
2022-09-14T07:33:42.386Z,51.63
2022-09-14T07:36:10.513Z,51.63
2022-09-14T07:38:53.533Z,52.67
2022-09-14T07:41:21.687Z,52.92
2022-09-14T07:43:50.063Z,52.35
2022-09-14T07:46:17.429Z,52.39
2022-09-14T07:48:44.923Z,52.35
2022-09-14T07:51:12.131Z,51.76
2022-09-14T07:53:40.508Z,51.21
2022-09-14T07:56:08.120Z,50.97
2022-09-14T07:58:35.382Z,51.44
2022-09-14T08:01:04.201Z,52.19
2022-09-14T08:03:31.667Z,52.26
2022-09-14T08:06:00.424Z,52.88
2022-09-14T08:08:30.947Z,53.63
2022-09-14T08:11:08.507Z,53.44
2022-09-14T08:13:35.583Z,53.45
2022-09-14T08:16:02.871Z,53.45
2022-09-14T08:18:30.240Z,53.23
2022-09-14T08:20:57.472Z,53.12
2022-09-14T08:23:25.296Z,53.26
2022-09-14T08:25:53.226Z,53.21
2022-09-14T08:28:20.862Z,54.54
2022-09-14T08:30:47.950Z,54.31
2022-09-14T08:33:15.042Z,53.99
2022-09-14T08:35:57.563Z,54.43
2022-09-14T08:38:25.482Z,54.94
2022-09-14T08:40:52.637Z,55.56
2022-09-14T08:43:19.901Z,55.13
2022-09-14T08:45:47.025Z,56.21
2022-09-14T08:48:22.613Z,55.99
2022-09-14T08:50:53.769Z,55.37
2022-09-14T08:53:21.606Z,55.45
2022-09-14T08:55:49.643Z,56.22
2022-09-14T08:58:16.651Z,56.47
2022-09-14T09:00:46.172Z,56.27
2022-09-14T09:03:22.791Z,55.28
2022-09-14T09:05:52.912Z,56.10
2022-09-14T09:08:24.638Z,54.77
2022-09-14T09:10:52.747Z,53.91
2022-09-14T09:13:20.880Z,54.26
2022-09-14T09:15:55.772Z,54.77
2022-09-14T09:18:24.266Z,53.84
2022-09-14T09:20:52.345Z,53.44
2022-09-14T09:23:19.379Z,53.30
2022-09-14T09:26:03.809Z,53.44
2022-09-14T09:28:30.970Z,53.03
2022-09-14T09:30:59.728Z,53.02
2022-09-14T09:33:28.667Z,52.28
2022-09-14T09:35:56.832Z,51.57
2022-09-14T09:38:25.603Z,51.89
2022-09-14T09:41:05.795Z,52.04
2022-09-14T09:43:48.785Z,51.24
2022-09-14T09:46:17.065Z,51.53
2022-09-14T09:48:45.455Z,51.34
2022-09-14T09:51:19.810Z,50.85
2022-09-14T09:53:52.099Z,51.03
2022-09-14T09:56:20.232Z,51.54
2022-09-14T09:58:51.627Z,50.74
2022-09-14T10:01:20.364Z,50.68
2022-09-14T10:04:15.767Z,49.90
2022-09-14T10:06:43.867Z,49.97
2022-09-14T10:09:29.254Z,49.51
2022-09-14T10:11:57.586Z,49.63
2022-09-14T10:14:31.380Z,49.88
2022-09-14T10:17:05.935Z,50.13
2022-09-14T10:19:33.481Z,50.21
2022-09-14T10:22:02.033Z,50.31
2022-09-14T10:24:29.278Z,49.57
2022-09-14T10:26:56.983Z,49.94
2022-09-14T10:29:29.249Z,52.87
2022-09-14T10:31:57.793Z,52.85
2022-09-14T10:34:24.962Z,52.07
2022-09-14T10:36:54.669Z,51.23
2022-09-14T10:39:26.121Z,52.49
2022-09-14T10:42:02.044Z,51.25
2022-09-14T10:44:48.798Z,51.92
2022-09-14T10:47:21.955Z,52.67
2022-09-14T10:50:24.786Z,52.26
2022-09-14T10:53:10.402Z,52.93
2022-09-14T10:55:44.755Z,52.62
2022-09-14T10:58:20.109Z,52.79
2022-09-14T11:01:10.278Z,52.67
2022-09-14T11:03:45.252Z,51.99
2022-09-14T11:06:19.389Z,51.49
2022-09-14T11:08:48.459Z,52.38
2022-09-14T11:11:16.086Z,52.52
2022-09-14T11:13:46.412Z,51.98
2022-09-14T11:16:13.666Z,52.35
2022-09-14T11:18:51.496Z,52.41
2022-09-14T11:21:37.025Z,52.54
2022-09-14T11:24:22.263Z,52.63
2022-09-14T11:26:54.958Z,52.13
2022-09-14T11:29:22.498Z,51.99
2022-09-14T11:32:10.130Z,51.83
2022-09-14T11:34:41.261Z,53.16
2022-09-14T11:37:09.692Z,52.29
2022-09-14T11:39:38.386Z,52.00
2022-09-14T11:42:17.897Z,51.47
2022-09-14T11:44:47.011Z,51.75
2022-09-14T11:47:18.517Z,52.09
2022-09-14T11:50:03.759Z,52.00
2022-09-14T11:52:32.040Z,52.38
2022-09-14T11:54:59.839Z,52.14
2022-09-14T11:57:28.055Z,52.90
2022-09-14T11:59:56.774Z,51.95
2022-09-14T12:02:24.016Z,51.80
2022-09-14T12:05:06.822Z,50.78
2022-09-14T12:07:42.271Z,52.19
2022-09-14T12:10:16.227Z,51.79
2022-09-14T12:13:17.525Z,51.64
2022-09-14T12:15:45.219Z,51.17
2022-09-14T12:18:13.447Z,51.53
2022-09-14T12:20:42.986Z,50.71
2022-09-14T12:23:20.701Z,50.48
2022-09-14T12:25:56.881Z,50.26
2022-09-14T12:28:36.460Z,50.29
2022-09-14T12:31:03.778Z,49.73
2022-09-14T12:33:31.439Z,49.30
2022-09-14T12:36:10.977Z,50.72
2022-09-14T12:38:38.512Z,49.13
2022-09-14T12:41:14.986Z,48.81
2022-09-14T12:43:42.505Z,48.79
2022-09-14T12:46:10.704Z,48.56
2022-09-14T12:48:55.587Z,48.11
2022-09-14T12:51:29.430Z,47.54
2022-09-14T12:54:08.940Z,47.57
2022-09-14T12:56:55.390Z,48.36
2022-09-14T12:59:41.430Z,47.15
2022-09-14T13:02:27.893Z,47.66
2022-09-14T13:04:55.816Z,49.24
2022-09-14T13:07:25.862Z,49.00
2022-09-14T13:09:54.318Z,48.54
2022-09-14T13:12:30.650Z,48.09
2022-09-14T13:14:59.218Z,47.38
2022-09-14T13:17:26.483Z,47.02
2022-09-14T13:20:05.145Z,46.83
2022-09-14T13:22:33.210Z,46.30
2022-09-14T13:25:01.627Z,46.01
2022-09-14T13:27:28.925Z,46.59
2022-09-14T13:29:59.479Z,46.87
2022-09-14T13:32:26.877Z,46.46
2022-09-14T13:34:54.886Z,47.23
2022-09-14T13:37:22.566Z,46.50
2022-09-14T13:39:51.235Z,45.89
2022-09-14T13:42:18.656Z,45.59
2022-09-14T13:44:46.817Z,46.14
2022-09-14T13:47:15.027Z,47.52
2022-09-14T13:49:42.560Z,46.62
2022-09-14T13:52:19.165Z,45.84
2022-09-14T13:54:46.860Z,45.36
2022-09-14T13:57:15.684Z,44.83
2022-09-14T14:00:01.722Z,45.36
2022-09-14T14:02:29.144Z,46.02
2022-09-14T14:04:56.664Z,45.30
2022-09-14T14:07:27.573Z,45.12
2022-09-14T14:09:56.131Z,45.29
2022-09-14T14:12:31.043Z,44.99
2022-09-14T14:14:59.357Z,44.89
2022-09-14T14:17:30.006Z,44.56
2022-09-14T14:19:58.312Z,45.24
2022-09-14T14:22:28.490Z,45.43
2022-09-14T14:25:12.799Z,46.32
2022-09-14T14:27:43.313Z,45.03
2022-09-14T14:30:14.017Z,45.16
2022-09-14T14:32:42.875Z,45.67
2022-09-14T14:35:17.468Z,44.86
2022-09-14T14:37:44.847Z,46.27
2022-09-14T14:40:12.831Z,45.25
2022-09-14T14:42:40.107Z,46.49
2022-09-14T14:45:09.277Z,45.39
2022-09-14T14:47:36.760Z,44.93
2022-09-14T14:50:04.330Z,46.60
2022-09-14T14:52:31.709Z,45.61
2022-09-14T14:55:00.424Z,46.18
2022-09-14T14:57:28.453Z,45.72
2022-09-14T14:59:55.703Z,45.94
2022-09-14T15:02:23.593Z,47.32
2022-09-14T15:04:50.956Z,46.83
2022-09-14T15:07:18.199Z,46.78
2022-09-14T15:09:45.737Z,46.12
2022-09-14T15:12:13.565Z,45.80
2022-09-14T15:14:40.887Z,46.29
2022-09-14T15:17:08.429Z,46.15
2022-09-14T15:19:35.695Z,45.91
2022-09-14T15:22:02.942Z,46.24
2022-09-14T15:24:30.485Z,46.18
2022-09-14T15:26:58.249Z,47.02
2022-09-14T15:29:25.510Z,46.99
2022-09-14T15:31:53.063Z,47.62
2022-09-14T15:34:20.423Z,47.56
2022-09-14T15:36:50.977Z,46.90
2022-09-14T15:39:22.591Z,47.14
2022-09-14T15:41:50.095Z,48.43
2022-09-14T15:44:17.654Z,47.96
2022-09-14T15:46:47.478Z,47.24
2022-09-14T15:49:17.767Z,46.99
2022-09-14T15:51:45.438Z,47.01
2022-09-14T15:54:13.025Z,48.44
2022-09-14T15:56:40.753Z,47.73
2022-09-14T15:59:08.701Z,47.75
2022-09-14T16:01:36.206Z,47.91
2022-09-14T16:04:08.266Z,47.82
2022-09-14T16:06:39.824Z,48.33
2022-09-14T16:09:08.197Z,48.08
2022-09-14T16:11:35.695Z,48.76
2022-09-14T16:14:03.071Z,48.19
2022-09-14T16:16:31.004Z,48.32
2022-09-14T16:18:58.290Z,48.70
2022-09-14T16:21:26.362Z,48.21
2022-09-14T16:23:55.107Z,47.90
2022-09-14T16:26:25.069Z,48.13
2022-09-14T16:28:52.797Z,47.91
2022-09-14T16:31:24.615Z,48.15
2022-09-14T16:33:53.234Z,48.34
2022-09-14T16:36:39.853Z,48.38
2022-09-14T16:39:09.619Z,48.60
2022-09-14T16:41:39.114Z,48.76
2022-09-14T16:44:06.952Z,48.99
2022-09-14T16:46:35.008Z,49.02
2022-09-14T16:49:03.834Z,49.11
2022-09-14T16:51:31.374Z,49.38
2022-09-14T16:54:00.125Z,49.49
2022-09-14T16:56:29.125Z,49.56
2022-09-14T16:58:56.505Z,49.67
2022-09-14T17:01:25.303Z,49.66
2022-09-14T17:03:53.653Z,49.71
2022-09-14T17:06:25.143Z,50.30
2022-09-14T17:08:53.485Z,50.56
2022-09-14T17:11:20.864Z,50.76
2022-09-14T17:13:48.203Z,50.75
2022-09-14T17:16:17.489Z,50.90
2022-09-14T17:18:45.606Z,51.20
2022-09-14T17:21:13.755Z,51.36
2022-09-14T17:23:41.372Z,51.47
2022-09-14T17:26:09.957Z,51.68
2022-09-14T17:28:38.930Z,51.67
2022-09-14T17:31:07.484Z,51.81
2022-09-14T17:33:35.812Z,52.37
2022-09-14T17:36:03.964Z,53.12
2022-09-14T17:38:32.734Z,53.39
2022-09-14T17:41:07.432Z,53.01
2022-09-14T17:43:36.045Z,53.00
2022-09-14T17:46:04.346Z,53.03
2022-09-14T17:48:34.196Z,52.85
2022-09-14T17:51:06.908Z,53.04
2022-09-14T17:53:41.145Z,52.94
2022-09-14T17:56:15.809Z,53.05
2022-09-14T17:58:43.961Z,53.12
2022-09-14T18:01:16.335Z,53.21
2022-09-14T18:03:44.748Z,53.66
2022-09-14T18:06:12.521Z,54.50
2022-09-14T18:08:41.348Z,54.73
2022-09-14T18:11:10.757Z,54.60
2022-09-14T18:13:45.255Z,55.72
2022-09-14T18:16:13.670Z,55.02
2022-09-14T18:18:41.402Z,55.43
2022-09-14T18:21:09.208Z,55.41
2022-09-14T18:23:37.065Z,55.46
2022-09-14T18:26:05.304Z,55.53
2022-09-14T18:28:34.095Z,55.63
2022-09-14T18:31:05.581Z,55.58
2022-09-14T18:33:33.260Z,55.58
2022-09-14T18:36:00.663Z,55.50
2022-09-14T18:38:28.946Z,55.76
2022-09-14T18:41:02.362Z,55.89
2022-09-14T18:43:30.889Z,56.77
2022-09-14T18:45:58.614Z,56.24
2022-09-14T18:48:27.230Z,56.48
2022-09-14T18:50:55.856Z,57.07
2022-09-14T18:53:23.176Z,56.79
2022-09-14T18:55:50.683Z,56.48
2022-09-14T18:58:18.550Z,56.12
2022-09-14T19:00:46.179Z,55.99
2022-09-14T19:03:13.494Z,55.82
2022-09-14T19:05:42.886Z,55.69
2022-09-14T19:08:13.528Z,55.65
2022-09-14T19:10:41.689Z,55.43
2022-09-14T19:13:09.678Z,55.69
2022-09-14T19:15:38.287Z,55.81
2022-09-14T19:18:07.740Z,55.84
2022-09-14T19:21:04.748Z,56.35
2022-09-14T19:23:26.337Z,56.57
2022-09-14T19:25:54.558Z,56.95
2022-09-14T19:28:21.811Z,57.17
2022-09-14T19:30:50.143Z,57.37
2022-09-14T19:33:17.448Z,56.86
2022-09-14T19:35:44.837Z,56.92
2022-09-14T19:38:12.418Z,56.85
2022-09-14T19:40:39.652Z,56.98
2022-09-14T19:43:07.025Z,56.32
2022-09-14T19:45:38.224Z,56.27
2022-09-14T19:48:05.584Z,56.93
2022-09-14T19:50:32.888Z,56.67
2022-09-14T19:53:04.421Z,56.85
2022-09-14T19:55:32.206Z,56.79
2022-09-14T19:57:59.459Z,56.67
2022-09-14T20:00:26.985Z,56.23
2022-09-14T20:02:54.631Z,56.37
2022-09-14T20:05:21.873Z,56.43
2022-09-14T20:07:49.657Z,56.50
2022-09-14T20:10:18.458Z,56.86
2022-09-14T20:12:46.652Z,56.61
2022-09-14T20:15:14.975Z,56.21
2022-09-14T20:17:42.476Z,56.71
2022-09-14T20:20:11.111Z,56.48
2022-09-14T20:22:38.343Z,56.34
2022-09-14T20:25:06.295Z,56.46
2022-09-14T20:27:33.555Z,57.04
2022-09-14T20:30:00.869Z,57.29
2022-09-14T20:32:28.392Z,57.16
2022-09-14T20:34:55.579Z,56.85
2022-09-14T20:37:22.768Z,57.21
2022-09-14T20:39:50.399Z,57.10
2022-09-14T20:42:17.666Z,56.85
2022-09-14T20:44:44.934Z,56.70
2022-09-14T20:47:12.483Z,56.58
2022-09-14T20:49:39.697Z,56.41
2022-09-14T20:52:06.913Z,56.43
2022-09-14T20:54:34.438Z,56.60
2022-09-14T20:57:04.449Z,56.92
2022-09-14T20:59:38.298Z,57.26
2022-09-14T21:02:05.978Z,57.16
2022-09-14T21:04:33.915Z,56.91
2022-09-14T21:10:03.417Z,56.30
2022-09-14T21:12:30.960Z,57.81
2022-09-14T21:14:58.214Z,57.88
2022-09-14T21:17:25.558Z,56.90
2022-09-14T21:19:53.079Z,56.77
2022-09-14T21:22:21.445Z,56.00
2022-09-14T21:24:48.671Z,56.18
2022-09-14T21:27:16.200Z,56.62
2022-09-14T21:29:43.453Z,56.37
2022-09-14T21:32:10.706Z,56.26
2022-09-14T21:34:38.248Z,56.50
2022-09-14T21:37:05.487Z,56.40
2022-09-14T21:39:32.799Z,56.30
2022-09-14T21:42:00.522Z,56.18
2022-09-14T21:44:31.120Z,56.33
2022-09-14T21:46:58.793Z,56.42
2022-09-14T21:49:26.563Z,56.54
2022-09-14T21:51:53.869Z,56.21
2022-09-14T21:54:21.505Z,56.11
2022-09-14T21:56:49.422Z,56.07
2022-09-14T21:59:18.271Z,55.81
2022-09-14T22:01:45.828Z,56.15
2022-09-14T22:04:31.459Z,55.85
2022-09-14T22:06:59.386Z,55.73
2022-09-14T22:09:28.215Z,55.81
2022-09-14T22:11:55.944Z,55.63
2022-09-14T22:14:24.572Z,55.52
2022-09-14T22:16:52.267Z,55.21
2022-09-14T22:19:20.914Z,55.04
2022-09-14T22:21:48.539Z,55.29
2022-09-14T22:24:17.453Z,55.37
2022-09-14T22:26:44.893Z,55.22
2022-09-14T22:29:12.972Z,55.56
2022-09-14T22:31:41.051Z,55.59
2022-09-14T22:34:08.369Z,55.23
2022-09-14T22:36:35.865Z,55.17
2022-09-14T22:39:03.794Z,55.06
2022-09-14T22:41:31.056Z,55.10
2022-09-14T22:43:58.310Z,55.39
2022-09-14T22:46:26.423Z,55.24
2022-09-14T22:48:53.752Z,55.32
2022-09-14T22:51:22.076Z,55.50
2022-09-14T22:53:49.889Z,55.44
2022-09-14T22:56:21.754Z,55.27
2022-09-14T22:58:49.302Z,55.42
2022-09-14T23:01:18.082Z,55.16
2022-09-14T23:03:45.343Z,55.62
2022-09-14T23:06:12.597Z,55.58
2022-09-14T23:08:40.257Z,56.03
2022-09-14T23:11:11.370Z,56.12
2022-09-14T23:13:42.413Z,57.76
2022-09-14T23:16:11.216Z,57.01
2022-09-14T23:18:38.516Z,56.96
2022-09-14T23:21:06.125Z,57.85
2022-09-14T23:23:33.870Z,57.02
2022-09-14T23:26:05.054Z,56.30
2022-09-14T23:28:32.432Z,56.91
2022-09-14T23:31:00.097Z,57.12
2022-09-14T23:33:27.787Z,55.86
2022-09-14T23:35:55.040Z,58.76
2022-09-14T23:38:22.805Z,56.60
2022-09-14T23:40:50.077Z,56.00
2022-09-14T23:43:17.956Z,56.05
2022-09-14T23:45:46.002Z,55.72
2022-09-14T23:48:13.538Z,55.78
2022-09-14T23:50:40.804Z,57.18
2022-09-14T23:53:08.535Z,56.42
2022-09-14T23:55:35.957Z,57.14
2022-09-14T23:58:03.568Z,57.03
